Time;durP1;ratioP1;P1;durP2;ratioP2;P2;SDS_P1;SDS_P2;PMS_P1;PMS_P2;Temp;Humidity;BMP_temperature;BMP_pressure;BME280_temperature;BME280_humidity;BME280_pressure;Samples;Min_cycle;Max_cycle;Signal;HPM_P1;HPM_P2
2023/02/12 00:02:13;;;;;;;33.70;25.20;;;;;;;5.24;100.00;98617.69;5109446;28;20180;-64
2023/02/12 00:04:39;;;;;;;36.87;26.47;;;;;;;5.17;100.00;98614.03;5113220;28;20213;-65
2023/02/12 00:07:04;;;;;;;33.83;25.13;;;;;;;5.11;100.00;98612.00;5113398;28;20207;-64
2023/02/12 00:09:30;;;;;;;32.33;24.90;;;;;;;5.07;100.00;98621.88;5113806;28;20251;-64
2023/02/12 00:11:55;;;;;;;33.33;26.27;;;;;;;5.12;100.00;98622.28;5100933;28;20200;-64
2023/02/12 00:14:21;;;;;;;33.10;25.70;;;;;;;5.21;100.00;98623.16;5093764;28;20198;-64
2023/02/12 00:16:46;;;;;;;34.10;26.67;;;;;;;5.17;100.00;98622.66;5096009;28;20188;-64
2023/02/12 00:19:11;;;;;;;33.83;25.07;;;;;;;5.09;100.00;98621.72;5111145;28;20183;-65
2023/02/12 00:21:37;;;;;;;36.33;26.73;;;;;;;5.10;100.00;98623.38;5095670;28;20631;-65
2023/02/12 00:24:03;;;;;;;35.93;26.10;;;;;;;5.09;100.00;98624.31;5113513;28;20172;-65
2023/02/12 00:26:28;;;;;;;36.83;25.80;;;;;;;5.12;100.00;98618.84;5114060;28;20204;-65
2023/02/12 00:28:54;;;;;;;36.90;25.83;;;;;;;5.21;100.00;98625.75;5097681;28;20668;-64
2023/02/12 00:31:23;;;;;;;35.57;26.47;;;;;;;5.14;100.00;98622.91;5094586;28;20185;-64
2023/02/12 00:33:49;;;;;;;33.50;26.33;;;;;;;5.16;100.00;98630.59;5092594;28;20184;-64
2023/02/12 00:36:18;;;;;;;35.00;26.20;;;;;;;5.20;100.00;98624.13;5094259;28;20207;-65
2023/02/12 00:38:44;;;;;;;37.43;27.90;;;;;;;5.26;100.00;98628.72;5098249;28;20180;-65
2023/02/12 00:41:10;;;;;;;36.30;26.20;;;;;;;5.30;100.00;98630.06;5096488;28;20698;-65
2023/02/12 00:43:40;;;;;;;34.33;26.73;;;;;;;5.41;100.00;98629.84;5093240;28;20189;-65
2023/02/12 00:46:06;;;;;;;38.17;26.83;;;;;;;5.37;100.00;98633.72;5096966;28;20319;-64
2023/02/12 00:48:33;;;;;;;33.40;25.43;;;;;;;5.30;100.00;98630.88;5098283;28;20208;-65
2023/02/12 00:50:58;;;;;;;35.27;28.00;;;;;;;5.33;100.00;98642.78;5112302;28;20192;-65
2023/02/12 00:53:24;;;;;;;35.50;28.13;;;;;;;5.18;100.00;98645.06;5094260;28;20188;-64
2023/02/12 00:55:50;;;;;;;37.57;27.80;;;;;;;5.22;100.00;98643.00;5101114;28;20258;-64
2023/02/12 00:58:15;;;;;;;35.13;28.30;;;;;;;5.25;100.00;98638.31;5113170;28;20191;-64
2023/02/12 01:00:42;;;;;;;34.80;27.17;;;;;;;5.27;100.00;98638.16;5113346;28;20175;-64
2023/02/12 01:03:07;;;;;;;35.37;27.50;;;;;;;5.20;100.00;98630.13;5114282;28;20265;-64
2023/02/12 01:05:33;;;;;;;32.60;26.30;;;;;;;5.15;100.00;98629.75;5095703;28;20716;-64
2023/02/12 01:07:58;;;;;;;40.07;27.43;;;;;;;5.18;100.00;98646.84;5092849;28;20202;-64
2023/02/12 01:10:24;;;;;;;34.23;27.40;;;;;;;5.19;100.00;98638.88;5092865;28;20256;-64
2023/02/12 01:12:50;;;;;;;35.40;27.60;;;;;;;5.18;100.00;98636.47;5092631;28;20177;-64
2023/02/12 01:15:17;;;;;;;39.97;28.17;;;;;;;5.19;100.00;98631.09;5107082;28;20577;-65
2023/02/12 01:17:43;;;;;;;37.90;27.57;;;;;;;5.22;100.00;98636.00;5096092;28;20199;-65
2023/02/12 01:20:12;;;;;;;37.03;26.80;;;;;;;5.25;100.00;98637.50;5123868;28;20212;-64
2023/02/12 01:22:38;;;;;;;35.20;28.13;;;;;;;5.17;100.00;98633.03;5092645;28;20168;-65
2023/02/12 01:25:08;;;;;;;37.40;26.53;;;;;;;5.18;100.00;98634.69;5105350;28;20286;-65
2023/02/12 01:27:34;;;;;;;37.20;27.30;;;;;;;5.19;100.00;98630.28;5112708;28;20249;-64
2023/02/12 01:30:00;;;;;;;37.30;27.43;;;;;;;5.17;100.00;98635.63;5095238;28;20706;-65
2023/02/12 01:32:25;;;;;;;37.77;28.60;;;;;;;5.22;100.00;98630.81;5112508;28;20718;-65
2023/02/12 01:34:50;;;;;;;38.47;29.23;;;;;;;5.28;100.00;98626.81;5101482;28;20236;-64
2023/02/12 01:37:16;;;;;;;37.10;28.33;;;;;;;5.23;100.00;98631.63;5092385;28;20180;-64
2023/02/12 01:39:41;;;;;;;35.50;28.37;;;;;;;5.23;100.00;98631.63;5107277;28;20192;-64
2023/02/12 01:42:11;;;;;;;37.43;28.63;;;;;;;5.17;100.00;98635.63;5112768;28;20195;-64
2023/02/12 01:44:43;;;;;;;37.00;29.27;;;;;;;5.26;100.00;98631.31;5111971;28;20199;-65
2023/02/12 01:47:16;;;;;;;37.17;29.30;;;;;;;5.21;100.00;98629.19;5111190;28;20306;-65
2023/02/12 01:49:45;;;;;;;39.60;29.23;;;;;;;5.15;100.00;98627.16;5092642;28;20188;-64
2023/02/12 01:52:19;;;;;;;37.87;30.07;;;;;;;5.17;100.00;98630.44;5092461;28;20600;-64
2023/02/12 01:57:36;;;;;;;36.80;30.00;;;;;;;5.22;100.00;98624.78;5106662;28;20218;-64
2023/02/12 02:00:05;;;;;;;39.63;30.87;;;;;;;5.22;100.00;98620.41;5112733;28;20559;-64
2023/02/12 02:02:33;;;;;;;38.60;30.70;;;;;;;5.24;100.00;98618.47;5126400;27;20250;-65
2023/02/12 02:05:02;;;;;;;35.60;26.40;;;;;;;5.18;100.00;98615.66;5136698;27;20210;-65
2023/02/12 02:07:28;;;;;;;35.97;25.57;;;;;;;5.34;100.00;98628.81;5137189;27;20353;-64
2023/02/12 02:09:55;;;;;;;34.20;25.70;;;;;;;5.33;100.00;98627.19;5136617;27;20733;-64
2023/02/12 02:15:07;;;;;;;36.33;26.07;;;;;;;5.24;100.00;98612.47;5112332;27;20231;-64
2023/02/12 02:18:05;;;;;;;39.80;27.80;;;;;;;5.23;100.00;98621.25;5116421;27;20189;-64
2023/02/12 02:20:52;;;;;;;37.53;26.00;;;;;;;5.23;100.00;98613.44;5097032;28;20192;-64
2023/02/12 02:23:48;;;;;;;36.33;26.13;;;;;;;5.23;100.00;98603.03;5127645;27;20254;-64
2023/02/12 02:26:35;;;;;;;34.63;26.13;;;;;;;5.13;100.00;98602.28;5135800;27;20219;-64
2023/02/12 02:29:29;;;;;;;33.83;25.50;;;;;;;5.18;100.00;98607.88;5136300;27;20218;-65
2023/02/12 02:32:05;;;;;;;37.13;25.67;;;;;;;5.53;100.00;98604.44;5136263;27;20182;-64
2023/02/12 02:35:04;;;;;;;36.40;26.67;;;;;;;5.57;100.00;98606.59;5100392;28;20172;-64
2023/02/12 02:37:46;;;;;;;37.80;25.07;;;;;;;5.21;100.00;98605.78;5116474;27;20188;-64
2023/02/12 02:40:37;;;;;;;38.10;26.50;;;;;;;5.21;100.00;98600.59;5106850;28;20660;-64
2023/02/12 02:43:19;;;;;;;34.60;25.07;;;;;;;5.11;100.00;98602.44;5129925;27;20220;-64
2023/02/12 02:45:50;;;;;;;36.40;25.83;;;;;;;5.10;100.00;98607.78;5132739;27;20572;-64
2023/02/12 02:48:39;;;;;;;36.47;24.97;;;;;;;5.03;100.00;98597.16;5115541;28;20325;-64
2023/02/12 02:51:17;;;;;;;38.23;26.67;;;;;;;4.99;100.00;98601.00;5097965;28;20175;-64
2023/02/12 02:54:00;;;;;;;35.67;24.67;;;;;;;5.06;100.00;98596.03;5117067;27;20190;-64
2023/02/12 02:56:29;;;;;;;37.70;25.40;;;;;;;5.24;100.00;98604.69;5113104;28;20223;-64
2023/02/12 02:59:00;;;;;;;34.57;25.37;;;;;;;5.14;100.00;98596.94;5115754;27;20528;-64
2023/02/12 03:01:34;;;;;;;38.83;26.13;;;;;;;5.19;100.00;98599.91;5098219;28;20187;-65
2023/02/12 03:04:05;;;;;;;36.47;24.90;;;;;;;5.10;100.00;98593.00;5134625;27;20177;-64
2023/02/12 03:06:40;;;;;;;34.10;23.97;;;;;;;5.23;100.00;98595.25;5115340;28;20203;-64
2023/02/12 03:09:17;;;;;;;32.17;25.47;;;;;;;5.03;100.00;98597.97;5115375;28;20214;-64
2023/02/12 03:11:42;;;;;;;35.57;25.47;;;;;;;5.06;100.00;98599.47;5129105;27;20179;-64
2023/02/12 03:14:25;;;;;;;39.63;24.67;;;;;;;5.11;100.00;98606.81;5127740;27;20188;-64
2023/02/12 03:17:11;;;;;;;34.63;26.27;;;;;;;4.97;100.00;98597.72;5130143;27;20265;-64
2023/02/12 03:19:55;;;;;;;35.93;26.27;;;;;;;5.26;100.00;98607.94;5134629;27;20171;-64
2023/02/12 03:22:26;;;;;;;35.93;26.60;;;;;;;5.00;100.00;98608.66;5116402;27;20191;-64
2023/02/12 03:25:15;;;;;;;33.87;25.07;;;;;;;4.81;100.00;98603.56;5114975;28;20211;-64
2023/02/12 03:28:08;;;;;;;35.23;25.03;;;;;;;4.73;100.00;98616.47;5114854;27;20200;-64
2023/02/12 03:30:43;;;;;;;34.37;25.07;;;;;;;4.82;100.00;98620.78;5130968;27;20172;-64
2023/02/12 03:33:20;;;;;;;37.40;27.63;;;;;;;4.78;100.00;98614.25;5123666;27;20176;-64
2023/02/12 03:36:14;;;;;;;34.67;25.57;;;;;;;4.66;100.00;98614.59;5120449;27;20221;-65
2023/02/12 03:38:54;;;;;;;37.30;25.67;;;;;;;4.59;100.00;98611.75;5118297;27;20191;-65
2023/02/12 03:41:26;;;;;;;37.20;26.47;;;;;;;4.96;100.00;98611.69;5114395;27;20237;-64
2023/02/12 03:43:58;;;;;;;35.47;26.27;;;;;;;4.84;100.00;98603.28;5128792;27;20215;-64
2023/02/12 03:46:41;;;;;;;32.27;24.90;;;;;;;4.62;100.00;98608.06;5117568;27;20290;-65
2023/02/12 03:49:16;;;;;;;35.13;25.70;;;;;;;4.59;100.00;98607.38;5134808;27;20214;-65
2023/02/12 03:51:43;;;;;;;34.97;25.67;;;;;;;4.57;100.00;98611.06;5114940;27;20681;-64
2023/02/12 03:54:12;;;;;;;35.17;25.40;;;;;;;4.62;100.00;98613.25;5131358;27;20180;-64
2023/02/12 03:56:53;;;;;;;35.20;26.27;;;;;;;4.56;100.00;98617.25;5096821;27;20235;-64
2023/02/12 03:59:20;;;;;;;40.43;27.13;;;;;;;4.55;100.00;98613.81;5135764;27;20196;-64
2023/02/12 04:01:48;;;;;;;38.37;26.87;;;;;;;4.76;100.00;98621.38;5115737;27;20176;-64
2023/02/12 04:04:15;;;;;;;41.33;26.53;;;;;;;4.60;100.00;98618.59;5114487;28;20176;-64
2023/02/12 04:06:41;;;;;;;36.37;26.97;;;;;;;4.71;100.00;98621.00;5098837;27;20183;-65
2023/02/12 04:09:09;;;;;;;39.70;26.73;;;;;;;4.59;100.00;98625.56;5134403;27;20203;-64
2023/02/12 04:11:53;;;;;;;36.50;25.27;;;;;;;4.53;100.00;98623.53;5107592;27;20180;-65
2023/02/12 04:14:40;;;;;;;35.97;28.20;;;;;;;4.51;100.00;98624.66;5114656;27;20567;-65
2023/02/12 04:17:19;;;;;;;39.67;28.47;;;;;;;4.52;100.00;98628.84;5095576;28;20567;-64
2023/02/12 04:20:12;;;;;;;39.87;28.93;;;;;;;4.86;100.00;98629.94;5116089;27;20203;-65
2023/02/12 04:22:58;;;;;;;36.87;28.10;;;;;;;4.78;100.00;98627.25;5129017;27;20180;-64
2023/02/12 04:25:41;;;;;;;37.80;29.07;;;;;;;4.50;100.00;98631.63;5099280;27;20283;-65
2023/02/12 04:28:21;;;;;;;37.10;27.57;;;;;;;4.72;100.00;98637.41;5113704;28;20675;-65
2023/02/12 04:30:57;;;;;;;38.07;29.00;;;;;;;4.74;100.00;98633.69;5113756;28;20175;-65
2023/02/12 04:33:27;;;;;;;41.93;28.50;;;;;;;4.74;100.00;98640.66;5113640;28;20187;-64
2023/02/12 04:36:01;;;;;;;41.37;29.33;;;;;;;4.78;100.00;98631.63;5129122;27;20230;-64
2023/02/12 04:38:42;;;;;;;45.17;29.50;;;;;;;4.84;100.00;98639.66;5129159;27;20191;-64
2023/02/12 04:41:09;;;;;;;41.67;27.93;;;;;;;4.94;100.00;98637.00;5103748;27;20202;-64
2023/02/12 04:43:36;;;;;;;43.97;29.60;;;;;;;4.87;100.00;98638.53;5133976;27;20199;-64
2023/02/12 04:46:05;;;;;;;40.77;29.07;;;;;;;4.52;100.00;98634.03;5118381;27;20207;-64
2023/02/12 04:48:30;;;;;;;43.03;30.10;;;;;;;4.53;100.00;98639.09;5130761;27;20203;-64
2023/02/12 04:50:56;;;;;;;36.33;27.67;;;;;;;4.48;100.00;98637.91;5133774;27;20182;-64
2023/02/12 04:53:21;;;;;;;38.57;27.97;;;;;;;4.41;100.00;98637.63;5122930;27;20187;-64
2023/02/12 04:55:49;;;;;;;37.53;27.63;;;;;;;4.39;100.00;98644.78;5111098;28;20242;-64
2023/02/12 04:58:15;;;;;;;41.97;27.80;;;;;;;4.54;100.00;98639.91;5113379;28;20176;-64
2023/02/12 05:00:41;;;;;;;38.10;28.20;;;;;;;4.61;100.00;98643.59;5113409;28;20655;-64
2023/02/12 05:03:06;;;;;;;39.63;29.53;;;;;;;4.55;100.00;98646.75;5123487;27;20251;-64
2023/02/12 05:05:32;;;;;;;40.00;28.73;;;;;;;4.69;100.00;98645.44;5094725;28;20294;-64
2023/02/12 05:07:57;;;;;;;42.63;28.73;;;;;;;4.73;100.00;98639.84;5129667;28;20199;-64
2023/02/12 05:10:23;;;;;;;40.60;29.63;;;;;;;4.54;100.00;98640.75;5131770;28;20176;-64
2023/02/12 05:12:51;;;;;;;40.93;29.57;;;;;;;4.53;100.00;98639.09;5126089;28;20667;-65
2023/02/12 05:15:17;;;;;;;46.07;31.00;;;;;;;4.48;100.00;98633.53;5113489;28;20695;-64
2023/02/12 05:17:44;;;;;;;40.37;28.63;;;;;;;4.46;100.00;98632.84;5114296;28;20180;-64
2023/02/12 05:20:11;;;;;;;39.80;27.97;;;;;;;4.47;100.00;98634.47;5114281;28;20222;-64
2023/02/12 05:22:37;;;;;;;45.67;29.83;;;;;;;4.50;100.00;98638.59;5132771;28;20182;-64
2023/02/12 05:25:03;;;;;;;41.67;29.27;;;;;;;4.41;100.00;98644.59;5133380;28;20206;-64
2023/02/12 05:27:28;;;;;;;40.00;27.77;;;;;;;4.34;100.00;98638.38;5120626;28;20215;-64
2023/02/12 05:29:55;;;;;;;41.63;29.20;;;;;;;4.38;100.00;98632.75;5129997;28;20175;-64
2023/02/12 05:32:21;;;;;;;38.93;28.53;;;;;;;4.44;100.00;98639.97;5096627;28;20176;-64
2023/02/12 05:34:47;;;;;;;36.33;27.60;;;;;;;4.36;100.00;98629.47;5113078;28;20204;-63
2023/02/12 05:37:13;;;;;;;43.77;27.93;;;;;;;4.49;100.00;98639.53;5126620;27;20187;-64
2023/02/12 05:39:38;;;;;;;37.63;27.33;;;;;;;4.55;100.00;98642.38;5126453;27;20253;-64
2023/02/12 05:42:04;;;;;;;36.87;29.33;;;;;;;4.56;100.00;98632.81;5130891;27;20188;-64
2023/02/12 05:44:29;;;;;;;39.40;28.20;;;;;;;4.54;100.00;98632.97;5117037;28;20190;-63
2023/02/12 05:46:54;;;;;;;38.33;27.70;;;;;;;4.57;100.00;98637.84;5125377;27;20714;-63
2023/02/12 05:49:57;;;;;;;36.67;27.43;;;;;;;4.43;100.00;98637.50;5137435;27;20183;-63
2023/02/12 05:52:22;;;;;;;37.10;27.43;;;;;;;4.48;100.00;98637.91;5100638;28;20179;-65
2023/02/12 05:54:49;;;;;;;37.87;28.10;;;;;;;4.63;100.00;98639.06;5117290;27;20756;-65
2023/02/12 05:57:14;;;;;;;37.83;27.67;;;;;;;4.88;100.00;98640.19;5110924;27;20224;-65
2023/02/12 05:59:40;;;;;;;41.77;28.17;;;;;;;4.87;100.00;98644.56;5106431;28;20600;-65
2023/02/12 06:02:05;;;;;;;38.77;27.30;;;;;;;4.67;100.00;98637.00;5112086;28;20533;-65
2023/02/12 06:04:30;;;;;;;34.37;26.50;;;;;;;4.82;100.00;98644.19;5116077;28;20286;-65
2023/02/12 06:06:56;;;;;;;36.97;26.43;;;;;;;4.88;100.00;98641.00;5104925;28;20717;-64
2023/02/12 06:09:22;;;;;;;37.10;26.83;;;;;;;4.71;100.00;98639.16;5110545;28;20180;-64
2023/02/12 06:11:48;;;;;;;37.77;28.37;;;;;;;4.54;100.00;98643.34;5098865;28;20560;-65
2023/02/12 06:14:15;;;;;;;39.63;28.60;;;;;;;4.55;100.00;98638.97;5096336;28;20180;-65
2023/02/12 06:16:47;;;;;;;36.50;27.23;;;;;;;4.77;100.00;98642.97;5105252;28;20539;-65
2023/02/12 06:19:13;;;;;;;38.07;27.57;;;;;;;4.79;100.00;98635.88;5102701;28;20299;-65
2023/02/12 06:21:38;;;;;;;37.47;26.67;;;;;;;4.56;100.00;98643.22;5112290;28;20224;-65
2023/02/12 06:24:04;;;;;;;38.93;28.00;;;;;;;4.72;100.00;98643.41;5116717;28;20176;-65
2023/02/12 06:26:29;;;;;;;39.23;27.30;;;;;;;4.47;100.00;98644.03;5113533;28;20902;-65
2023/02/12 06:28:55;;;;;;;38.90;27.37;;;;;;;4.45;100.00;98646.81;5115459;28;20207;-65
2023/02/12 06:31:23;;;;;;;36.47;27.93;;;;;;;4.55;100.00;98646.75;5111779;28;20183;-65
2023/02/12 06:33:50;;;;;;;37.40;27.33;;;;;;;4.82;100.00;98645.94;5100924;28;20177;-65
2023/02/12 06:36:16;;;;;;;41.20;26.20;;;;;;;4.53;100.00;98651.25;5095249;28;20208;-65
2023/02/12 06:38:42;;;;;;;35.80;26.67;;;;;;;4.54;100.00;98655.50;5092424;28;20188;-64
2023/02/12 06:41:08;;;;;;;37.73;26.30;;;;;;;4.64;100.00;98658.06;5104192;28;20188;-65
2023/02/12 06:43:33;;;;;;;35.83;26.90;;;;;;;4.56;100.00;98663.97;5088458;28;20176;-65
2023/02/12 06:46:01;;;;;;;36.80;27.00;;;;;;;4.48;100.00;98667.28;5095291;28;20231;-65
2023/02/12 06:48:26;;;;;;;35.50;26.87;;;;;;;4.36;100.00;98671.00;5094151;28;20673;-65
2023/02/12 06:50:52;;;;;;;37.73;26.13;;;;;;;4.32;100.00;98667.06;5077321;28;20180;-65
2023/02/12 06:53:17;;;;;;;35.20;26.30;;;;;;;4.57;100.00;98665.59;5095289;28;20191;-65
2023/02/12 06:55:43;;;;;;;36.57;25.87;;;;;;;4.56;100.00;98667.41;5109851;28;20211;-66
2023/02/12 07:01:20;;;;;;;40.03;27.43;;;;;;;4.45;100.00;98677.13;5118282;27;20276;-64
2023/02/12 07:03:54;;;;;;;39.77;27.43;;;;;;;4.19;100.00;98674.31;5116451;27;20226;-65
2023/02/12 07:06:20;;;;;;;40.07;27.17;;;;;;;4.64;100.00;98668.44;5115211;27;20264;-65
2023/02/12 07:08:46;;;;;;;35.60;24.93;;;;;;;4.40;100.00;98680.13;5116358;27;20672;-65
2023/02/12 07:11:12;;;;;;;35.37;26.87;;;;;;;4.35;100.00;98678.91;5115287;27;20701;-65
2023/02/12 07:13:40;;;;;;;35.70;27.10;;;;;;;4.60;100.00;98671.34;5117215;27;20191;-65
2023/02/12 07:16:11;;;;;;;39.43;28.80;;;;;;;4.53;100.00;98666.84;5135624;27;20211;-64
2023/02/12 07:18:38;;;;;;;40.03;27.43;;;;;;;4.54;100.00;98674.50;5133874;27;20174;-65
2023/02/12 07:21:05;;;;;;;39.67;27.57;;;;;;;4.63;100.00;98672.81;5115840;27;20264;-64
2023/02/12 07:23:31;;;;;;;35.73;26.73;;;;;;;4.65;100.00;98672.69;5115136;27;20198;-65
2023/02/12 07:26:04;;;;;;;36.33;28.10;;;;;;;4.59;100.00;98679.25;5135199;27;20730;-65
2023/02/12 07:28:32;;;;;;;40.93;28.27;;;;;;;4.69;100.00;98680.03;5137798;22;20232;-65
2023/02/12 07:30:58;;;;;;;39.80;28.20;;;;;;;4.74;100.00;98679.59;5105475;22;20243;-65
2023/02/12 07:33:23;;;;;;;38.63;29.07;;;;;;;4.68;100.00;98681.00;5094073;28;20664;-65
2023/02/12 07:35:49;;;;;;;45.13;34.13;;;;;;;4.73;100.00;98684.00;5094140;28;20236;-65
2023/02/12 07:38:14;;;;;;;42.47;34.77;;;;;;;4.93;100.00;98682.13;5094233;28;20274;-65
2023/02/12 07:40:39;;;;;;;43.70;34.10;;;;;;;4.84;100.00;98683.81;5092039;28;20235;-65
2023/02/12 07:43:05;;;;;;;40.37;32.10;;;;;;;5.18;100.00;98688.44;5075636;28;20701;-64
2023/02/12 07:45:30;;;;;;;40.80;33.03;;;;;;;5.29;100.00;98681.25;5093885;28;20208;-64
2023/02/12 07:47:55;;;;;;;50.07;36.90;;;;;;;4.87;100.00;98690.50;5088078;28;20664;-67
2023/02/12 07:50:21;;;;;;;43.03;36.93;;;;;;;5.04;100.00;98681.94;5086061;28;20192;-65
2023/02/12 07:52:49;;;;;;;43.87;35.73;;;;;;;5.30;100.00;98677.69;5093983;28;20189;-65
2023/02/12 07:55:14;;;;;;;41.93;32.53;;;;;;;4.92;100.00;98683.09;5094097;28;20269;-65
2023/02/12 07:57:39;;;;;;;43.23;36.87;;;;;;;4.91;100.00;98682.25;5092145;28;20636;-65
2023/02/12 08:00:06;;;;;;;43.60;36.77;;;;;;;5.23;100.00;98683.63;5083600;28;20222;-64
2023/02/12 08:02:31;;;;;;;47.53;38.23;;;;;;;5.05;100.00;98677.56;5094032;28;20185;-65
2023/02/12 08:04:57;;;;;;;45.00;39.13;;;;;;;5.26;100.00;98678.94;5080728;28;20205;-65
2023/02/12 08:07:23;;;;;;;47.57;36.10;;;;;;;5.23;100.00;98687.03;5073713;28;20205;-64
2023/02/12 08:09:49;;;;;;;41.93;33.23;;;;;;;5.36;100.00;98681.47;5074901;28;20196;-64
2023/02/12 08:12:16;;;;;;;44.10;33.90;;;;;;;5.39;100.00;98678.59;5093657;28;20628;-65
2023/02/12 08:14:41;;;;;;;42.97;33.17;;;;;;;5.48;100.00;98674.28;5083009;28;20580;-65
2023/02/12 08:17:07;;;;;;;54.10;46.67;;;;;;;5.61;100.00;98682.53;5073527;28;20189;-64
2023/02/12 08:19:33;;;;;;;47.83;40.73;;;;;;;5.54;100.00;98674.50;5074649;28;20541;-64
2023/02/12 08:22:01;;;;;;;85.13;77.97;;;;;;;5.65;100.00;98676.88;5073223;28;20196;-65
2023/02/12 08:24:26;;;;;;;89.77;82.23;;;;;;;5.95;100.00;98678.31;5073024;28;20194;-64
2023/02/12 08:26:52;;;;;;;61.30;55.37;;;;;;;5.83;100.00;98672.50;5073144;28;20736;-63
2023/02/12 08:29:21;;;;;;;48.03;38.30;;;;;;;5.83;100.00;98677.72;5084537;28;20261;-67
2023/02/12 08:31:48;;;;;;;49.80;40.27;;;;;;;5.72;100.00;98679.72;5070621;28;20240;-64
2023/02/12 08:34:20;;;;;;;48.93;40.70;;;;;;;5.74;100.00;98685.59;5055035;28;20193;-65
2023/02/12 08:36:47;;;;;;;46.43;32.43;;;;;;;5.60;100.00;98673.91;5073125;28;20251;-65
2023/02/12 08:39:16;;;;;;;43.47;30.90;;;;;;;5.49;100.00;98668.94;5083467;28;20558;-65
2023/02/12 08:41:41;;;;;;;51.37;33.00;;;;;;;5.39;100.00;98676.00;5092809;28;20215;-65
2023/02/12 08:44:08;;;;;;;43.37;32.37;;;;;;;5.53;100.00;98672.88;5092760;28;20189;-66
2023/02/12 08:46:36;;;;;;;44.73;31.37;;;;;;;5.64;100.00;98677.84;5091934;28;20302;-66
2023/02/12 08:49:05;;;;;;;45.20;31.77;;;;;;;5.71;100.00;98676.31;5090601;28;20230;-65
2023/02/12 08:51:34;;;;;;;48.33;33.27;;;;;;;5.58;100.00;98673.25;5092526;28;20188;-65
2023/02/12 08:54:02;;;;;;;48.33;30.90;;;;;;;5.84;100.00;98671.53;5076095;28;20276;-66
2023/02/12 08:56:31;;;;;;;45.03;30.67;;;;;;;5.96;100.00;98681.75;5056106;28;20234;-68
2023/02/12 08:58:58;;;;;;;44.23;29.03;;;;;;;5.77;100.00;98680.09;5078227;28;20185;-65
2023/02/12 09:01:25;;;;;;;39.77;28.47;;;;;;;5.97;100.00;98681.56;5088756;28;20218;-68
2023/02/12 09:03:51;;;;;;;42.30;30.53;;;;;;;5.87;100.00;98678.25;5093199;28;20223;-66
2023/02/12 09:06:19;;;;;;;38.13;27.57;;;;;;;5.93;100.00;98690.66;5091426;28;20690;-66
2023/02/12 09:08:45;;;;;;;47.07;28.83;;;;;;;5.76;100.00;98687.06;5087716;28;20296;-66
2023/02/12 09:11:25;;;;;;;32.80;23.73;;;;;;;5.30;100.00;98682.88;5072106;28;20228;-67
2023/02/12 09:13:51;;;;;;;38.93;26.67;;;;;;;5.78;100.00;98687.75;5080027;28;20188;-67
2023/02/12 09:16:18;;;;;;;42.30;27.40;;;;;;;5.75;100.00;98677.63;5085011;28;20243;-67
2023/02/12 09:18:44;;;;;;;35.57;25.80;;;;;;;6.04;100.00;98684.41;5073462;28;20196;-68
2023/02/12 09:21:15;;;;;;;32.30;23.93;;;;;;;5.83;100.00;98682.09;5072573;28;20189;-67
2023/02/12 09:23:41;;;;;;;31.53;23.97;;;;;;;5.99;100.00;98676.22;5072927;28;20201;-67
2023/02/12 09:26:10;;;;;;;32.80;23.57;;;;;;;6.06;100.00;98679.88;5080507;28;20217;-66
2023/02/12 09:28:36;;;;;;;28.40;20.53;;;;;;;6.22;100.00;98677.38;5073154;28;20217;-66
2023/02/12 09:31:14;;;;;;;26.73;19.97;;;;;;;6.53;100.00;98678.56;5069813;28;20237;-66
2023/02/12 09:33:41;;;;;;;24.53;19.03;;;;;;;6.62;100.00;98687.25;5072747;28;20223;-71
2023/02/12 09:36:12;;;;;;;24.80;19.80;;;;;;;6.47;100.00;98691.38;5061327;28;20683;-67
2023/02/12 09:38:38;;;;;;;22.90;17.67;;;;;;;6.43;100.00;98687.44;5089808;28;20176;-67
2023/02/12 09:41:10;;;;;;;23.97;18.40;;;;;;;6.58;100.00;98691.09;5072568;28;20338;-67
2023/02/12 09:44:03;;;;;;;26.67;19.73;;;;;;;6.88;100.00;98687.19;5091102;28;20239;-67
2023/02/12 09:46:32;;;;;;;26.67;19.83;;;;;;;7.11;100.00;98680.47;5082295;28;20211;-66
2023/02/12 09:48:57;;;;;;;22.13;18.93;;;;;;;7.18;100.00;98684.06;5074901;28;20227;-66
2023/02/12 09:51:25;;;;;;;21.87;18.83;;;;;;;7.09;100.00;98687.59;5081709;28;20656;-65
2023/02/12 09:54:00;;;;;;;19.30;17.30;;;;;;;7.10;100.00;98695.28;5074409;28;20619;-66
2023/02/12 09:56:27;;;;;;;20.20;17.43;;;;;;;7.29;100.00;98683.78;5083348;28;20251;-67
2023/02/12 09:59:02;;;;;;;21.47;19.23;;;;;;;6.83;100.00;98690.28;5073262;28;20197;-67
2023/02/12 10:01:28;;;;;;;18.87;16.97;;;;;;;6.65;100.00;98692.94;5072747;28;20197;-69
2023/02/12 10:03:55;;;;;;;18.80;16.50;;;;;;;6.66;100.00;98693.78;5072017;28;20201;-70
2023/02/12 10:06:21;;;;;;;24.20;20.20;;;;;;;6.37;100.00;98688.88;5072720;28;20205;-66
2023/02/12 10:09:17;;;;;;;20.20;18.20;;;;;;;6.91;100.00;98685.09;5072598;28;20212;-68
2023/02/12 10:12:03;;;;;;;20.00;17.90;;;;;;;6.84;100.00;98694.53;5072675;28;20197;-67
2023/02/12 10:14:58;;;;;;;18.43;16.63;;;;;;;7.05;100.00;98697.53;5076567;28;20182;-68
2023/02/12 10:18:11;;;;;;;18.30;16.53;;;;;;;6.79;100.00;98677.72;5045389;28;20196;-68
2023/02/12 10:20:49;;;;;;;19.87;18.10;;;;;;;7.00;100.00;98686.78;4991147;28;20251;-69
2023/02/12 10:23:24;;;;;;;17.13;15.40;;;;;;;6.84;100.00;98686.72;4991144;28;20207;-66
2023/02/12 10:25:52;;;;;;;24.57;22.47;;;;;;;7.08;100.00;98686.78;4993682;28;20310;-67
2023/02/12 10:28:22;;;;;;;18.97;17.00;;;;;;;6.87;100.00;98690.78;5004152;28;20322;-66
2023/02/12 10:30:55;;;;;;;18.37;16.67;;;;;;;7.01;100.00;98685.00;5033482;28;20241;-66
2023/02/12 10:33:34;;;;;;;18.33;16.40;;;;;;;7.16;100.00;98686.00;5077346;28;20228;-67
2023/02/12 10:36:38;;;;;;;17.47;15.87;;;;;;;7.30;100.00;98682.00;5085857;28;20200;-67
2023/02/12 10:39:11;;;;;;;16.70;15.03;;;;;;;7.08;100.00;98680.75;5013259;28;20689;-66
2023/02/12 10:41:42;;;;;;;16.27;14.57;;;;;;;6.77;100.00;98685.69;5059114;28;20235;-66
2023/02/12 10:44:10;;;;;;;17.90;16.50;;;;;;;7.22;100.00;98687.16;5082887;28;20532;-67
2023/02/12 10:46:36;;;;;;;17.07;15.57;;;;;;;7.15;100.00;98676.56;5085232;28;20575;-66
2023/02/12 10:49:02;;;;;;;17.17;15.73;;;;;;;7.30;100.00;98672.34;5091979;28;20208;-67
2023/02/12 10:51:45;;;;;;;13.33;12.13;;;;;;;7.36;100.00;98666.50;5082410;28;20181;-66
2023/02/12 10:54:40;;;;;;;10.03;9.00;;;;;;;7.26;100.00;98662.41;5077012;28;20197;-67
2023/02/12 10:57:22;;;;;;;9.23;8.33;;;;;;;6.91;100.00;98663.44;5073715;28;20618;-66
2023/02/12 10:59:50;;;;;;;10.97;10.00;;;;;;;7.39;100.00;98660.97;5079927;28;20215;-66
2023/02/12 11:02:19;;;;;;;15.63;14.53;;;;;;;7.78;100.00;98655.97;5076481;28;20189;-66
2023/02/12 11:04:46;;;;;;;10.03;9.13;;;;;;;7.60;99.71;98654.47;5075183;28;20213;-66
2023/02/12 11:07:11;;;;;;;8.70;7.80;;;;;;;7.62;100.00;98655.97;5087167;28;20283;-67
2023/02/12 11:09:44;;;;;;;9.47;8.57;;;;;;;7.76;99.46;98654.50;5093633;28;20256;-67
2023/02/12 11:12:31;;;;;;;11.17;10.20;;;;;;;7.56;100.00;98656.59;5090801;28;20667;-66
2023/02/12 11:15:05;;;;;;;10.30;9.33;;;;;;;7.99;98.64;98655.47;5085594;28;20300;-65
2023/02/12 11:17:40;;;;;;;11.37;10.47;;;;;;;8.07;98.55;98647.66;5084820;28;20660;-67
2023/02/12 11:20:15;;;;;;;11.10;10.17;;;;;;;7.21;100.00;98656.84;5076497;28;20215;-67
2023/02/12 11:22:48;;;;;;;10.37;8.00;;;;;;;7.49;100.00;98651.22;5084226;28;20189;-67
2023/02/12 11:25:15;;;;;;;9.87;8.87;;;;;;;7.32;100.00;98657.38;5075932;28;20208;-66
2023/02/12 11:27:41;;;;;;;9.40;8.10;;;;;;;7.15;100.00;98658.31;5088498;28;20220;-67
2023/02/12 11:30:19;;;;;;;45.13;20.73;;;;;;;7.59;100.00;98648.44;5070460;28;20239;-68
2023/02/12 11:32:45;;;;;;;11.10;9.97;;;;;;;7.14;100.00;98643.63;5087032;28;20671;-67
2023/02/12 11:35:27;;;;;;;11.97;10.83;;;;;;;7.14;100.00;98648.03;5073846;28;20209;-68
2023/02/12 11:37:57;;;;;;;15.80;14.43;;;;;;;7.47;100.00;98654.94;5088365;28;20195;-67
2023/02/12 11:40:26;;;;;;;15.60;14.30;;;;;;;7.29;100.00;98649.88;5084542;28;20197;-68
2023/02/12 11:42:57;;;;;;;11.37;10.33;;;;;;;7.41;100.00;98651.19;5086045;28;20662;-67